sensor_id;sensor_type;location;lat;lon;timestamp;P1;durP1;ratioP1;P2;durP2;ratioP2
19151;SDS011;9708;53.114;9.388;2022-11-20T04:49:24;4.83;;;3.00;;
19151;SDS011;9708;53.114;9.388;2022-11-20T04:51:52;3.90;;;3.37;;
19151;SDS011;9708;53.114;9.388;2022-11-20T04:54:19;8.63;;;3.93;;
19151;SDS011;9708;53.114;9.388;2022-11-20T04:56:46;4.30;;;2.83;;
19151;SDS011;9708;53.114;9.388;2022-11-20T04:59:13;8.63;;;2.93;;
19151;SDS011;9708;53.114;9.388;2022-11-20T05:01:40;5.63;;;3.00;;
19151;SDS011;9708;53.114;9.388;2022-11-20T05:04:07;3.37;;;2.30;;
19151;SDS011;9708;53.114;9.388;2022-11-20T05:06:35;3.70;;;2.33;;
19151;SDS011;9708;53.114;9.388;2022-11-20T05:09:02;5.37;;;3.50;;
19151;SDS011;9708;53.114;9.388;2022-11-20T05:11:29;6.30;;;2.80;;
19151;SDS011;9708;53.114;9.388;2022-11-20T05:13:58;2.60;;;2.23;;
19151;SDS011;9708;53.114;9.388;2022-11-20T05:16:25;2.87;;;2.67;;
19151;SDS011;9708;53.114;9.388;2022-11-20T05:18:53;5.33;;;4.13;;
19151;SDS011;9708;53.114;9.388;2022-11-20T05:21:20;2.70;;;2.50;;
19151;SDS011;9708;53.114;9.388;2022-11-20T05:23:49;4.80;;;4.27;;
19151;SDS011;9708;53.114;9.388;2022-11-20T05:26:17;6.30;;;2.90;;
19151;SDS011;9708;53.114;9.388;2022-11-20T05:28:46;3.13;;;2.50;;
19151;SDS011;9708;53.114;9.388;2022-11-20T05:31:14;4.63;;;3.00;;
19151;SDS011;9708;53.114;9.388;2022-11-20T05:33:43;4.37;;;3.00;;
19151;SDS011;9708;53.114;9.388;2022-11-20T05:36:10;4.20;;;3.30;;
19151;SDS011;9708;53.114;9.388;2022-11-20T05:38:38;3.27;;;2.63;;
19151;SDS011;9708;53.114;9.388;2022-11-20T05:41:09;2.90;;;2.60;;
19151;SDS011;9708;53.114;9.388;2022-11-20T05:43:37;3.03;;;2.60;;
19151;SDS011;9708;53.114;9.388;2022-11-20T05:46:06;3.93;;;2.50;;
19151;SDS011;9708;53.114;9.388;2022-11-20T05:48:34;5.37;;;2.87;;
19151;SDS011;9708;53.114;9.388;2022-11-20T05:51:02;3.17;;;2.87;;
19151;SDS011;9708;53.114;9.388;2022-11-20T05:53:31;5.57;;;3.10;;
19151;SDS011;9708;53.114;9.388;2022-11-20T05:55:58;5.77;;;3.10;;
19151;SDS011;9708;53.114;9.388;2022-11-20T05:58:27;3.27;;;2.97;;
19151;SDS011;9708;53.114;9.388;2022-11-20T06:00:54;3.40;;;2.77;;
19151;SDS011;9708;53.114;9.388;2022-11-20T06:03:28;4.27;;;3.20;;
19151;SDS011;9708;53.114;9.388;2022-11-20T06:05:55;4.93;;;2.63;;
19151;SDS011;9708;53.114;9.388;2022-11-20T06:08:22;2.93;;;2.63;;
19151;SDS011;9708;53.114;9.388;2022-11-20T06:10:49;4.47;;;2.60;;
19151;SDS011;9708;53.114;9.388;2022-11-20T06:13:15;3.93;;;2.80;;
19151;SDS011;9708;53.114;9.388;2022-11-20T06:15:44;4.13;;;2.33;;
19151;SDS011;9708;53.114;9.388;2022-11-20T06:18:14;7.10;;;3.40;;
19151;SDS011;9708;53.114;9.388;2022-11-20T06:20:41;5.47;;;2.30;;
19151;SDS011;9708;53.114;9.388;2022-11-20T06:23:08;3.03;;;2.33;;
19151;SDS011;9708;53.114;9.388;2022-11-20T06:25:36;5.13;;;3.13;;
19151;SDS011;9708;53.114;9.388;2022-11-20T06:28:03;3.77;;;2.10;;
19151;SDS011;9708;53.114;9.388;2022-11-20T06:30:30;3.27;;;2.13;;
19151;SDS011;9708;53.114;9.388;2022-11-20T06:32:58;3.30;;;2.33;;
19151;SDS011;9708;53.114;9.388;2022-11-20T06:35:25;4.93;;;2.80;;
19151;SDS011;9708;53.114;9.388;2022-11-20T06:37:52;4.60;;;2.97;;
19151;SDS011;9708;53.114;9.388;2022-11-20T06:40:19;5.83;;;3.13;;
19151;SDS011;9708;53.114;9.388;2022-11-20T06:42:45;3.43;;;2.47;;
19151;SDS011;9708;53.114;9.388;2022-11-20T06:45:12;4.87;;;2.23;;
19151;SDS011;9708;53.114;9.388;2022-11-20T06:47:39;2.43;;;2.20;;
19151;SDS011;9708;53.114;9.388;2022-11-20T06:50:07;6.33;;;2.37;;
19151;SDS011;9708;53.114;9.388;2022-11-20T06:52:34;4.90;;;2.47;;
19151;SDS011;9708;53.114;9.388;2022-11-20T06:55:01;3.30;;;2.47;;
19151;SDS011;9708;53.114;9.388;2022-11-20T06:57:28;4.50;;;2.97;;
19151;SDS011;9708;53.114;9.388;2022-11-20T06:59:55;4.20;;;2.93;;
19151;SDS011;9708;53.114;9.388;2022-11-20T07:02:22;5.87;;;2.73;;
19151;SDS011;9708;53.114;9.388;2022-11-20T07:04:48;3.20;;;2.03;;
19151;SDS011;9708;53.114;9.388;2022-11-20T07:07:17;5.33;;;2.53;;
19151;SDS011;9708;53.114;9.388;2022-11-20T07:09:44;6.17;;;3.30;;
19151;SDS011;9708;53.114;9.388;2022-11-20T07:12:10;2.97;;;2.43;;
19151;SDS011;9708;53.114;9.388;2022-11-20T07:14:37;6.50;;;2.13;;
19151;SDS011;9708;53.114;9.388;2022-11-20T07:17:04;3.60;;;2.80;;
19151;SDS011;9708;53.114;9.388;2022-11-20T07:19:31;5.20;;;3.10;;
19151;SDS011;9708;53.114;9.388;2022-11-20T07:21:57;4.80;;;2.40;;
19151;SDS011;9708;53.114;9.388;2022-11-20T07:24:26;5.90;;;3.20;;
19151;SDS011;9708;53.114;9.388;2022-11-20T07:26:52;6.27;;;3.17;;
19151;SDS011;9708;53.114;9.388;2022-11-20T07:29:19;3.10;;;2.77;;
19151;SDS011;9708;53.114;9.388;2022-11-20T07:31:46;5.00;;;3.23;;
19151;SDS011;9708;53.114;9.388;2022-11-20T07:34:13;6.70;;;3.80;;
19151;SDS011;9708;53.114;9.388;2022-11-20T07:36:39;2.63;;;2.37;;
19151;SDS011;9708;53.114;9.388;2022-11-20T07:39:06;4.00;;;3.10;;
19151;SDS011;9708;53.114;9.388;2022-11-20T07:41:34;6.67;;;2.93;;
19151;SDS011;9708;53.114;9.388;2022-11-20T07:44:01;4.90;;;3.13;;
19151;SDS011;9708;53.114;9.388;2022-11-20T07:46:28;3.30;;;2.60;;
19151;SDS011;9708;53.114;9.388;2022-11-20T07:48:55;2.67;;;2.20;;
19151;SDS011;9708;53.114;9.388;2022-11-20T07:51:21;3.03;;;2.60;;
19151;SDS011;9708;53.114;9.388;2022-11-20T07:53:50;7.83;;;5.13;;
19151;SDS011;9708;53.114;9.388;2022-11-20T07:56:17;3.73;;;2.40;;
19151;SDS011;9708;53.114;9.388;2022-11-20T07:58:45;7.87;;;3.37;;
19151;SDS011;9708;53.114;9.388;2022-11-20T08:01:11;5.63;;;3.17;;
19151;SDS011;9708;53.114;9.388;2022-11-20T08:03:38;4.10;;;3.23;;
19151;SDS011;9708;53.114;9.388;2022-11-20T08:06:05;3.13;;;2.43;;
19151;SDS011;9708;53.114;9.388;2022-11-20T08:08:33;5.43;;;3.23;;
19151;SDS011;9708;53.114;9.388;2022-11-20T08:10:59;3.33;;;2.47;;
19151;SDS011;9708;53.114;9.388;2022-11-20T08:13:40;5.80;;;3.07;;
19151;SDS011;9708;53.114;9.388;2022-11-20T08:16:25;3.67;;;2.13;;
19151;SDS011;9708;53.114;9.388;2022-11-20T08:18:53;3.43;;;2.60;;
19151;SDS011;9708;53.114;9.388;2022-11-20T08:21:19;3.00;;;1.80;;
19151;SDS011;9708;53.114;9.388;2022-11-20T08:23:46;3.27;;;2.43;;
19151;SDS011;9708;53.114;9.388;2022-11-20T08:26:13;3.80;;;2.23;;
19151;SDS011;9708;53.114;9.388;2022-11-20T08:28:40;3.50;;;1.90;;
19151;SDS011;9708;53.114;9.388;2022-11-20T08:31:07;5.33;;;2.83;;
19151;SDS011;9708;53.114;9.388;2022-11-20T08:33:36;3.63;;;2.20;;
19151;SDS011;9708;53.114;9.388;2022-11-20T08:36:03;2.77;;;2.53;;
19151;SDS011;9708;53.114;9.388;2022-11-20T08:38:31;4.23;;;2.53;;
19151;SDS011;9708;53.114;9.388;2022-11-20T08:40:58;3.33;;;2.77;;
19151;SDS011;9708;53.114;9.388;2022-11-20T08:43:43;1.70;;;1.60;;
19151;SDS011;9708;53.114;9.388;2022-11-20T08:46:10;8.90;;;2.90;;
19151;SDS011;9708;53.114;9.388;2022-11-20T08:48:38;2.93;;;2.23;;
19151;SDS011;9708;53.114;9.388;2022-11-20T08:51:05;3.33;;;2.63;;
19151;SDS011;9708;53.114;9.388;2022-11-20T08:53:32;5.03;;;2.00;;
19151;SDS011;9708;53.114;9.388;2022-11-20T08:55:59;5.40;;;4.63;;
19151;SDS011;9708;53.114;9.388;2022-11-20T08:58:25;2.13;;;1.90;;
19151;SDS011;9708;53.114;9.388;2022-11-20T09:00:52;3.27;;;2.20;;
19151;SDS011;9708;53.114;9.388;2022-11-20T09:03:19;4.37;;;2.90;;
19151;SDS011;9708;53.114;9.388;2022-11-20T09:05:47;4.30;;;2.33;;
19151;SDS011;9708;53.114;9.388;2022-11-20T09:08:15;2.47;;;1.80;;
19151;SDS011;9708;53.114;9.388;2022-11-20T09:10:42;3.57;;;2.87;;
19151;SDS011;9708;53.114;9.388;2022-11-20T09:13:09;2.90;;;1.70;;
19151;SDS011;9708;53.114;9.388;2022-11-20T09:15:35;3.07;;;2.40;;
19151;SDS011;9708;53.114;9.388;2022-11-20T09:18:02;2.73;;;1.80;;
19151;SDS011;9708;53.114;9.388;2022-11-20T09:20:29;3.40;;;2.43;;
19151;SDS011;9708;53.114;9.388;2022-11-20T09:22:58;3.17;;;2.50;;
19151;SDS011;9708;53.114;9.388;2022-11-20T09:25:25;3.50;;;2.00;;
19151;SDS011;9708;53.114;9.388;2022-11-20T09:27:54;4.57;;;1.97;;
19151;SDS011;9708;53.114;9.388;2022-11-20T09:30:21;3.33;;;1.83;;
19151;SDS011;9708;53.114;9.388;2022-11-20T09:32:48;2.37;;;2.17;;
19151;SDS011;9708;53.114;9.388;2022-11-20T09:35:15;2.97;;;1.97;;
19151;SDS011;9708;53.114;9.388;2022-11-20T09:37:42;2.83;;;2.27;;
19151;SDS011;9708;53.114;9.388;2022-11-20T09:40:12;4.60;;;2.43;;
19151;SDS011;9708;53.114;9.388;2022-11-20T09:42:47;2.53;;;2.33;;
19151;SDS011;9708;53.114;9.388;2022-11-20T09:45:22;4.27;;;2.70;;
19151;SDS011;9708;53.114;9.388;2022-11-20T09:48:18;2.17;;;1.87;;
19151;SDS011;9708;53.114;9.388;2022-11-20T09:50:56;1.87;;;1.60;;
19151;SDS011;9708;53.114;9.388;2022-11-20T09:53:32;2.07;;;1.90;;
19151;SDS011;9708;53.114;9.388;2022-11-20T09:56:10;2.37;;;2.00;;
19151;SDS011;9708;53.114;9.388;2022-11-20T09:58:38;4.40;;;2.87;;
19151;SDS011;9708;53.114;9.388;2022-11-20T10:01:09;4.87;;;2.53;;
19151;SDS011;9708;53.114;9.388;2022-11-20T10:03:39;2.30;;;1.87;;
19151;SDS011;9708;53.114;9.388;2022-11-20T10:06:12;2.80;;;1.67;;
19151;SDS011;9708;53.114;9.388;2022-11-20T10:08:44;4.43;;;2.13;;
19151;SDS011;9708;53.114;9.388;2022-11-20T10:11:21;2.47;;;2.03;;
19151;SDS011;9708;53.114;9.388;2022-11-20T10:13:58;1.70;;;1.60;;
19151;SDS011;9708;53.114;9.388;2022-11-20T10:16:37;4.60;;;1.90;;
19151;SDS011;9708;53.114;9.388;2022-11-20T10:19:13;2.30;;;1.63;;
19151;SDS011;9708;53.114;9.388;2022-11-20T10:21:54;2.30;;;2.00;;
19151;SDS011;9708;53.114;9.388;2022-11-20T10:24:33;2.13;;;1.70;;
19151;SDS011;9708;53.114;9.388;2022-11-20T10:27:29;3.23;;;1.53;;
19151;SDS011;9708;53.114;9.388;2022-11-20T10:30:08;2.50;;;2.00;;
19151;SDS011;9708;53.114;9.388;2022-11-20T10:32:37;3.27;;;1.80;;
19151;SDS011;9708;53.114;9.388;2022-11-20T10:35:07;2.27;;;1.43;;
19151;SDS011;9708;53.114;9.388;2022-11-20T10:37:45;1.60;;;1.50;;
19151;SDS011;9708;53.114;9.388;2022-11-20T10:40:18;3.67;;;2.07;;
19151;SDS011;9708;53.114;9.388;2022-11-20T10:42:51;2.87;;;1.47;;
19151;SDS011;9708;53.114;9.388;2022-11-20T10:45:27;2.90;;;1.97;;
19151;SDS011;9708;53.114;9.388;2022-11-20T10:48:07;1.70;;;1.60;;
19151;SDS011;9708;53.114;9.388;2022-11-20T10:50:40;3.23;;;2.20;;
19151;SDS011;9708;53.114;9.388;2022-11-20T10:53:17;3.13;;;2.33;;
19151;SDS011;9708;53.114;9.388;2022-11-20T10:55:56;2.13;;;1.87;;
19151;SDS011;9708;53.114;9.388;2022-11-20T10:58:31;2.13;;;1.40;;
19151;SDS011;9708;53.114;9.388;2022-11-20T11:01:13;5.03;;;2.17;;
19151;SDS011;9708;53.114;9.388;2022-11-20T11:03:41;1.57;;;1.47;;
19151;SDS011;9708;53.114;9.388;2022-11-20T11:06:10;1.90;;;1.73;;
19151;SDS011;9708;53.114;9.388;2022-11-20T11:08:43;2.50;;;1.90;;
19151;SDS011;9708;53.114;9.388;2022-11-20T11:11:18;1.37;;;1.27;;
19151;SDS011;9708;53.114;9.388;2022-11-20T11:13:49;3.37;;;1.87;;
19151;SDS011;9708;53.114;9.388;2022-11-20T11:16:20;2.27;;;1.97;;
19151;SDS011;9708;53.114;9.388;2022-11-20T11:18:48;2.20;;;1.67;;
19151;SDS011;9708;53.114;9.388;2022-11-20T11:21:20;1.47;;;1.27;;
19151;SDS011;9708;53.114;9.388;2022-11-20T11:23:56;2.63;;;1.93;;
19151;SDS011;9708;53.114;9.388;2022-11-20T11:26:24;1.33;;;1.20;;
19151;SDS011;9708;53.114;9.388;2022-11-20T11:28:56;2.47;;;1.20;;
19151;SDS011;9708;53.114;9.388;2022-11-20T11:31:25;2.37;;;2.17;;
19151;SDS011;9708;53.114;9.388;2022-11-20T11:34:03;2.13;;;1.80;;
19151;SDS011;9708;53.114;9.388;2022-11-20T11:36:31;2.27;;;1.60;;
19151;SDS011;9708;53.114;9.388;2022-11-20T11:38:59;1.47;;;1.37;;
19151;SDS011;9708;53.114;9.388;2022-11-20T11:41:28;2.33;;;1.60;;
19151;SDS011;9708;53.114;9.388;2022-11-20T11:44:03;2.23;;;1.87;;
19151;SDS011;9708;53.114;9.388;2022-11-20T11:46:59;2.03;;;1.60;;
19151;SDS011;9708;53.114;9.388;2022-11-20T11:49:26;2.03;;;1.63;;
19151;SDS011;9708;53.114;9.388;2022-11-20T11:52:01;2.17;;;1.77;;
19151;SDS011;9708;53.114;9.388;2022-11-20T11:54:32;2.07;;;1.47;;
19151;SDS011;9708;53.114;9.388;2022-11-20T11:57:05;1.87;;;1.40;;
19151;SDS011;9708;53.114;9.388;2022-11-20T11:59:41;1.60;;;1.30;;
19151;SDS011;9708;53.114;9.388;2022-11-20T12:02:15;2.23;;;2.13;;
19151;SDS011;9708;53.114;9.388;2022-11-20T12:04:54;4.33;;;2.30;;
19151;SDS011;9708;53.114;9.388;2022-11-20T12:07:27;2.47;;;2.27;;
19151;SDS011;9708;53.114;9.388;2022-11-20T12:10:01;2.20;;;1.87;;
19151;SDS011;9708;53.114;9.388;2022-11-20T12:12:29;1.77;;;1.33;;
19151;SDS011;9708;53.114;9.388;2022-11-20T12:15:06;1.83;;;1.67;;
19151;SDS011;9708;53.114;9.388;2022-11-20T12:17:37;3.90;;;1.70;;
19151;SDS011;9708;53.114;9.388;2022-11-20T12:20:05;1.77;;;1.67;;
19151;SDS011;9708;53.114;9.388;2022-11-20T12:22:39;2.63;;;1.30;;
19151;SDS011;9708;53.114;9.388;2022-11-20T12:25:16;2.33;;;1.33;;
19151;SDS011;9708;53.114;9.388;2022-11-20T12:27:54;1.10;;;1.00;;
19151;SDS011;9708;53.114;9.388;2022-11-20T12:30:52;2.10;;;1.60;;
19151;SDS011;9708;53.114;9.388;2022-11-20T12:36:33;2.23;;;1.30;;
19151;SDS011;9708;53.114;9.388;2022-11-20T12:39:18;2.40;;;1.80;;
19151;SDS011;9708;53.114;9.388;2022-11-20T12:42:01;4.90;;;1.70;;
19151;SDS011;9708;53.114;9.388;2022-11-20T12:45:02;1.77;;;1.23;;
19151;SDS011;9708;53.114;9.388;2022-11-20T12:47:51;1.33;;;1.33;;
19151;SDS011;9708;53.114;9.388;2022-11-20T12:50:46;3.30;;;2.00;;
19151;SDS011;9708;53.114;9.388;2022-11-20T12:53:27;2.60;;;1.60;;
19151;SDS011;9708;53.114;9.388;2022-11-20T12:56:01;3.70;;;1.73;;
19151;SDS011;9708;53.114;9.388;2022-11-20T12:58:41;2.53;;;1.50;;
19151;SDS011;9708;53.114;9.388;2022-11-20T13:01:19;1.63;;;1.40;;
19151;SDS011;9708;53.114;9.388;2022-11-20T13:04:08;2.73;;;2.33;;
19151;SDS011;9708;53.114;9.388;2022-11-20T13:06:45;2.23;;;2.03;;
19151;SDS011;9708;53.114;9.388;2022-11-20T13:09:12;3.77;;;2.30;;
19151;SDS011;9708;53.114;9.388;2022-11-20T13:11:43;2.50;;;2.27;;
19151;SDS011;9708;53.114;9.388;2022-11-20T13:14:16;2.70;;;2.23;;
19151;SDS011;9708;53.114;9.388;2022-11-20T13:16:53;2.77;;;2.43;;
19151;SDS011;9708;53.114;9.388;2022-11-20T13:19:25;3.80;;;3.03;;
19151;SDS011;9708;53.114;9.388;2022-11-20T13:21:53;4.40;;;2.47;;
19151;SDS011;9708;53.114;9.388;2022-11-20T13:24:21;2.63;;;2.43;;
19151;SDS011;9708;53.114;9.388;2022-11-20T13:29:45;2.03;;;1.83;;
19151;SDS011;9708;53.114;9.388;2022-11-20T13:32:14;2.97;;;2.43;;
19151;SDS011;9708;53.114;9.388;2022-11-20T13:34:54;2.53;;;2.07;;
19151;SDS011;9708;53.114;9.388;2022-11-20T13:37:26;2.97;;;1.70;;
19151;SDS011;9708;53.114;9.388;2022-11-20T13:40:05;7.27;;;3.67;;
19151;SDS011;9708;53.114;9.388;2022-11-20T13:42:38;9.00;;;3.90;;
19151;SDS011;9708;53.114;9.388;2022-11-20T13:45:10;4.77;;;3.17;;
19151;SDS011;9708;53.114;9.388;2022-11-20T13:47:52;3.07;;;2.23;;
19151;SDS011;9708;53.114;9.388;2022-11-20T13:50:25;2.10;;;1.73;;
19151;SDS011;9708;53.114;9.388;2022-11-20T13:53:09;2.30;;;1.80;;
19151;SDS011;9708;53.114;9.388;2022-11-20T13:55:50;1.90;;;1.70;;
19151;SDS011;9708;53.114;9.388;2022-11-20T13:58:25;4.40;;;2.20;;
19151;SDS011;9708;53.114;9.388;2022-11-20T14:01:07;2.27;;;2.07;;
19151;SDS011;9708;53.114;9.388;2022-11-20T14:03:35;3.27;;;1.83;;
19151;SDS011;9708;53.114;9.388;2022-11-20T14:06:10;2.83;;;2.47;;
19151;SDS011;9708;53.114;9.388;2022-11-20T14:08:41;2.00;;;1.80;;
19151;SDS011;9708;53.114;9.388;2022-11-20T14:11:13;3.53;;;1.67;;
19151;SDS011;9708;53.114;9.388;2022-11-20T14:13:52;4.10;;;2.13;;
19151;SDS011;9708;53.114;9.388;2022-11-20T14:16:21;4.90;;;2.57;;
19151;SDS011;9708;53.114;9.388;2022-11-20T14:18:48;2.73;;;1.77;;
19151;SDS011;9708;53.114;9.388;2022-11-20T14:21:22;4.03;;;1.83;;
19151;SDS011;9708;53.114;9.388;2022-11-20T14:23:52;2.53;;;1.83;;
19151;SDS011;9708;53.114;9.388;2022-11-20T14:26:19;2.70;;;2.20;;
19151;SDS011;9708;53.114;9.388;2022-11-20T14:28:47;1.83;;;1.73;;
19151;SDS011;9708;53.114;9.388;2022-11-20T14:31:18;2.60;;;1.97;;
19151;SDS011;9708;53.114;9.388;2022-11-20T14:33:50;3.33;;;2.23;;
19151;SDS011;9708;53.114;9.388;2022-11-20T14:36:18;3.53;;;2.13;;
19151;SDS011;9708;53.114;9.388;2022-11-20T14:38:49;6.93;;;2.73;;
19151;SDS011;9708;53.114;9.388;2022-11-20T14:41:18;2.93;;;2.27;;
19151;SDS011;9708;53.114;9.388;2022-11-20T14:43:47;3.47;;;2.77;;
19151;SDS011;9708;53.114;9.388;2022-11-20T14:46:17;2.37;;;2.17;;
19151;SDS011;9708;53.114;9.388;2022-11-20T14:48:44;2.10;;;1.70;;
19151;SDS011;9708;53.114;9.388;2022-11-20T14:51:24;3.53;;;2.10;;
19151;SDS011;9708;53.114;9.388;2022-11-20T14:53:54;4.50;;;2.23;;
19151;SDS011;9708;53.114;9.388;2022-11-20T14:56:21;1.77;;;1.67;;
19151;SDS011;9708;53.114;9.388;2022-11-20T14:58:55;3.63;;;2.83;;
19151;SDS011;9708;53.114;9.388;2022-11-20T15:01:25;6.30;;;2.70;;
19151;SDS011;9708;53.114;9.388;2022-11-20T15:03:57;5.07;;;3.10;;
19151;SDS011;9708;53.114;9.388;2022-11-20T15:06:28;4.23;;;2.17;;
19151;SDS011;9708;53.114;9.388;2022-11-20T15:08:56;5.23;;;2.57;;
19151;SDS011;9708;53.114;9.388;2022-11-20T15:11:25;2.93;;;2.13;;
19151;SDS011;9708;53.114;9.388;2022-11-20T15:13:55;2.33;;;1.83;;
19151;SDS011;9708;53.114;9.388;2022-11-20T15:16:24;3.87;;;2.30;;
19151;SDS011;9708;53.114;9.388;2022-11-20T15:18:53;3.40;;;2.90;;
19151;SDS011;9708;53.114;9.388;2022-11-20T15:21:20;3.43;;;2.33;;
19151;SDS011;9708;53.114;9.388;2022-11-20T15:23:48;3.60;;;2.83;;
19151;SDS011;9708;53.114;9.388;2022-11-20T15:26:16;3.17;;;2.57;;
19151;SDS011;9708;53.114;9.388;2022-11-20T15:28:47;2.77;;;2.37;;
19151;SDS011;9708;53.114;9.388;2022-11-20T15:31:15;2.53;;;2.33;;
19151;SDS011;9708;53.114;9.388;2022-11-20T15:33:43;5.27;;;2.20;;
19151;SDS011;9708;53.114;9.388;2022-11-20T15:36:10;6.03;;;3.70;;
19151;SDS011;9708;53.114;9.388;2022-11-20T15:38:37;3.43;;;2.37;;
19151;SDS011;9708;53.114;9.388;2022-11-20T15:41:06;4.10;;;2.30;;
19151;SDS011;9708;53.114;9.388;2022-11-20T15:43:33;5.20;;;3.20;;
19151;SDS011;9708;53.114;9.388;2022-11-20T15:46:00;2.70;;;2.23;;
19151;SDS011;9708;53.114;9.388;2022-11-20T15:48:29;2.37;;;2.23;;
19151;SDS011;9708;53.114;9.388;2022-11-20T15:51:02;5.50;;;3.20;;
19151;SDS011;9708;53.114;9.388;2022-11-20T15:53:32;7.10;;;2.20;;
19151;SDS011;9708;53.114;9.388;2022-11-20T15:55:59;2.77;;;2.37;;
19151;SDS011;9708;53.114;9.388;2022-11-20T15:58:27;2.77;;;1.80;;
19151;SDS011;9708;53.114;9.388;2022-11-20T16:00:54;7.17;;;3.30;;
19151;SDS011;9708;53.114;9.388;2022-11-20T16:03:21;3.67;;;2.87;;
19151;SDS011;9708;53.114;9.388;2022-11-20T16:05:49;4.60;;;3.10;;
19151;SDS011;9708;53.114;9.388;2022-11-20T16:08:15;8.23;;;4.37;;
19151;SDS011;9708;53.114;9.388;2022-11-20T16:10:42;6.33;;;4.07;;
19151;SDS011;9708;53.114;9.388;2022-11-20T16:13:12;6.27;;;4.83;;
19151;SDS011;9708;53.114;9.388;2022-11-20T16:16:00;9.43;;;4.83;;
19151;SDS011;9708;53.114;9.388;2022-11-20T16:18:30;4.63;;;2.93;;
19151;SDS011;9708;53.114;9.388;2022-11-20T16:20:58;4.70;;;3.97;;
19151;SDS011;9708;53.114;9.388;2022-11-20T16:23:24;3.07;;;2.80;;
19151;SDS011;9708;53.114;9.388;2022-11-20T16:25:51;3.60;;;3.27;;
19151;SDS011;9708;53.114;9.388;2022-11-20T16:28:18;3.33;;;2.73;;
19151;SDS011;9708;53.114;9.388;2022-11-20T16:30:45;4.90;;;3.17;;
19151;SDS011;9708;53.114;9.388;2022-11-20T16:33:14;6.57;;;4.67;;
19151;SDS011;9708;53.114;9.388;2022-11-20T16:35:42;6.50;;;4.83;;
19151;SDS011;9708;53.114;9.388;2022-11-20T16:38:09;6.60;;;4.33;;
19151;SDS011;9708;53.114;9.388;2022-11-20T16:40:36;4.27;;;3.27;;
19151;SDS011;9708;53.114;9.388;2022-11-20T16:43:06;10.07;;;4.50;;
19151;SDS011;9708;53.114;9.388;2022-11-20T16:45:39;7.50;;;6.13;;
19151;SDS011;9708;53.114;9.388;2022-11-20T16:48:10;8.03;;;4.50;;
19151;SDS011;9708;53.114;9.388;2022-11-20T16:50:45;6.33;;;4.67;;
19151;SDS011;9708;53.114;9.388;2022-11-20T16:53:13;8.13;;;4.63;;
19151;SDS011;9708;53.114;9.388;2022-11-20T16:55:40;6.73;;;5.63;;
19151;SDS011;9708;53.114;9.388;2022-11-20T16:58:07;9.73;;;4.57;;
19151;SDS011;9708;53.114;9.388;2022-11-20T17:00:35;6.93;;;3.40;;
19151;SDS011;9708;53.114;9.388;2022-11-20T17:03:02;8.00;;;4.03;;
19151;SDS011;9708;53.114;9.388;2022-11-20T17:05:29;5.90;;;4.60;;
19151;SDS011;9708;53.114;9.388;2022-11-20T17:07:58;21.03;;;10.20;;
19151;SDS011;9708;53.114;9.388;2022-11-20T17:10:24;17.07;;;8.23;;
19151;SDS011;9708;53.114;9.388;2022-11-20T17:12:51;20.20;;;6.27;;
19151;SDS011;9708;53.114;9.388;2022-11-20T17:15:18;8.80;;;4.50;;
19151;SDS011;9708;53.114;9.388;2022-11-20T17:17:45;12.67;;;6.87;;
19151;SDS011;9708;53.114;9.388;2022-11-20T17:20:12;6.27;;;4.90;;
19151;SDS011;9708;53.114;9.388;2022-11-20T17:22:38;10.77;;;4.77;;
19151;SDS011;9708;53.114;9.388;2022-11-20T17:25:07;6.47;;;3.97;;
19151;SDS011;9708;53.114;9.388;2022-11-20T17:27:34;6.87;;;4.70;;
19151;SDS011;9708;53.114;9.388;2022-11-20T17:30:01;6.40;;;5.90;;
19151;SDS011;9708;53.114;9.388;2022-11-20T17:32:27;6.37;;;5.10;;
19151;SDS011;9708;53.114;9.388;2022-11-20T17:34:54;8.97;;;5.20;;
19151;SDS011;9708;53.114;9.388;2022-11-20T17:37:22;5.77;;;4.63;;
19151;SDS011;9708;53.114;9.388;2022-11-20T17:39:49;8.70;;;4.50;;
19151;SDS011;9708;53.114;9.388;2022-11-20T17:42:17;4.53;;;4.13;;
19151;SDS011;9708;53.114;9.388;2022-11-20T17:44:54;8.57;;;4.77;;
19151;SDS011;9708;53.114;9.388;2022-11-20T17:47:22;8.83;;;5.83;;
19151;SDS011;9708;53.114;9.388;2022-11-20T17:49:49;11.07;;;6.20;;
19151;SDS011;9708;53.114;9.388;2022-11-20T17:52:17;9.13;;;5.53;;
19151;SDS011;9708;53.114;9.388;2022-11-20T17:54:44;7.73;;;5.07;;
19151;SDS011;9708;53.114;9.388;2022-11-20T17:57:11;5.40;;;4.57;;
19151;SDS011;9708;53.114;9.388;2022-11-20T17:59:56;8.97;;;5.20;;
19151;SDS011;9708;53.114;9.388;2022-11-20T18:02:23;21.63;;;10.03;;
19151;SDS011;9708;53.114;9.388;2022-11-20T18:04:50;6.63;;;4.73;;
19151;SDS011;9708;53.114;9.388;2022-11-20T18:07:17;8.90;;;6.03;;
19151;SDS011;9708;53.114;9.388;2022-11-20T18:09:43;4.13;;;3.67;;
19151;SDS011;9708;53.114;9.388;2022-11-20T18:12:10;6.10;;;3.93;;
19151;SDS011;9708;53.114;9.388;2022-11-20T18:14:37;4.13;;;3.57;;
19151;SDS011;9708;53.114;9.388;2022-11-20T18:17:06;4.73;;;3.57;;
19151;SDS011;9708;53.114;9.388;2022-11-20T18:19:35;7.80;;;5.40;;
19151;SDS011;9708;53.114;9.388;2022-11-20T18:22:04;45.37;;;16.73;;
19151;SDS011;9708;53.114;9.388;2022-11-20T18:24:32;7.93;;;4.87;;
19151;SDS011;9708;53.114;9.388;2022-11-20T18:27:00;17.13;;;8.87;;
19151;SDS011;9708;53.114;9.388;2022-11-20T18:29:27;20.33;;;9.90;;
19151;SDS011;9708;53.114;9.388;2022-11-20T18:31:55;15.87;;;9.07;;
19151;SDS011;9708;53.114;9.388;2022-11-20T18:34:23;13.50;;;5.87;;
19151;SDS011;9708;53.114;9.388;2022-11-20T18:36:50;9.30;;;5.60;;
19151;SDS011;9708;53.114;9.388;2022-11-20T18:39:17;3.90;;;3.53;;
19151;SDS011;9708;53.114;9.388;2022-11-20T18:41:44;7.80;;;3.63;;
19151;SDS011;9708;53.114;9.388;2022-11-20T18:44:34;6.60;;;4.67;;
19151;SDS011;9708;53.114;9.388;2022-11-20T18:47:16;4.83;;;3.63;;
19151;SDS011;9708;53.114;9.388;2022-11-20T18:49:46;4.57;;;3.63;;
19151;SDS011;9708;53.114;9.388;2022-11-20T18:52:17;6.13;;;4.03;;
19151;SDS011;9708;53.114;9.388;2022-11-20T18:54:44;4.83;;;4.03;;
19151;SDS011;9708;53.114;9.388;2022-11-20T18:57:11;11.80;;;4.40;;
19151;SDS011;9708;53.114;9.388;2022-11-20T18:59:39;7.47;;;4.27;;
19151;SDS011;9708;53.114;9.388;2022-11-20T19:02:07;5.43;;;4.53;;
19151;SDS011;9708;53.114;9.388;2022-11-20T19:04:35;4.87;;;3.30;;
19151;SDS011;9708;53.114;9.388;2022-11-20T19:07:03;8.70;;;5.57;;
19151;SDS011;9708;53.114;9.388;2022-11-20T19:09:30;4.43;;;3.57;;
19151;SDS011;9708;53.114;9.388;2022-11-20T19:11:57;6.03;;;4.73;;
19151;SDS011;9708;53.114;9.388;2022-11-20T19:14:24;6.27;;;3.37;;
19151;SDS011;9708;53.114;9.388;2022-11-20T19:16:51;3.43;;;3.07;;
19151;SDS011;9708;53.114;9.388;2022-11-20T19:19:17;3.73;;;3.37;;
19151;SDS011;9708;53.114;9.388;2022-11-20T19:21:44;9.63;;;5.13;;
19151;SDS011;9708;53.114;9.388;2022-11-20T19:24:13;7.80;;;4.63;;
19151;SDS011;9708;53.114;9.388;2022-11-20T19:26:40;4.93;;;4.30;;
19151;SDS011;9708;53.114;9.388;2022-11-20T19:29:09;4.97;;;3.33;;
19151;SDS011;9708;53.114;9.388;2022-11-20T19:31:38;6.20;;;3.30;;
19151;SDS011;9708;53.114;9.388;2022-11-20T19:34:05;7.73;;;4.03;;
19151;SDS011;9708;53.114;9.388;2022-11-20T19:36:34;3.53;;;3.23;;
19151;SDS011;9708;53.114;9.388;2022-11-20T19:39:02;10.23;;;4.97;;
19151;SDS011;9708;53.114;9.388;2022-11-20T19:41:32;13.63;;;7.63;;
19151;SDS011;9708;53.114;9.388;2022-11-20T19:44:00;7.57;;;5.10;;
19151;SDS011;9708;53.114;9.388;2022-11-20T19:46:28;12.70;;;6.90;;
19151;SDS011;9708;53.114;9.388;2022-11-20T19:48:56;13.13;;;6.70;;
19151;SDS011;9708;53.114;9.388;2022-11-20T19:51:24;7.60;;;5.07;;
19151;SDS011;9708;53.114;9.388;2022-11-20T19:53:54;8.03;;;6.13;;
19151;SDS011;9708;53.114;9.388;2022-11-20T19:56:21;13.30;;;6.63;;
19151;SDS011;9708;53.114;9.388;2022-11-20T19:58:49;6.77;;;4.13;;
19151;SDS011;9708;53.114;9.388;2022-11-20T20:01:19;8.83;;;4.80;;
19151;SDS011;9708;53.114;9.388;2022-11-20T20:03:48;8.20;;;7.23;;
19151;SDS011;9708;53.114;9.388;2022-11-20T20:06:15;13.27;;;6.97;;
19151;SDS011;9708;53.114;9.388;2022-11-20T20:08:44;12.03;;;5.90;;
19151;SDS011;9708;53.114;9.388;2022-11-20T20:11:11;8.77;;;6.10;;
19151;SDS011;9708;53.114;9.388;2022-11-20T20:13:39;13.00;;;8.30;;